Durham, Iowa
Current Conditions -  °F | °C
As of 9:35 PM on Friday 19 Dec 2014 (Local Time) from KPEA Reporting Station
Overcast Overcast  
Wind Chill: 24°   Ceiling: 1100
Heat Index: 30°   Visibility: 7mi
Dew Point: 27°   Wind: 7mph
Humidity: 86%   Direction: 150°SSE
Pressure: 30.23"   Gusts: NA
Location:  41.3017°N, 92.9423°W
Report Text: KPEA 200335Z AUTO 15006KT 7SM OVC011 M01/M03 A3023 RMK AO2 T10091030
Loading
Personal Weather Stations






























Interactive Weather Map New forecast layout! Learn more

10-Day Weather Forecast

Advertisements
Track Severe Weather on mobile